Watson Lake, Canada
Current Conditions -  °F | °C
As of 2:00 PM on Friday 24 Oct 2014 (Local Time) from CYQH Reporting Station
Overcast Overcast  
Wind Chill: 29°   Ceiling: 3000
Heat Index: 34°   Visibility: 15mi
Dew Point: 30°   Wind: 6mph
Humidity: 87%   Direction: 150°SSE
Pressure: 29.79"   Gusts: NA
Location:  60.06°N, 128.71°W
Report Text: CYQH 242100Z 15005KT 15SM FEW010 BKN030 OVC070 01/M01 A2979 RMKSF1SC3AC1 SLP124
Loading
Personal Weather Stations






























Interactive Weather Map
Tropical Storm Tracking
New forecast layout! Learn more

10-Day Weather Forecast

Advertisements
Track Severe Weather on mobile